createdAt,value
2022-12-25T00:01:40.188Z,100.00
2022-12-25T00:11:58.265Z,100.00
2022-12-25T00:17:00.305Z,100.00
2022-12-25T00:22:02.423Z,100.00
2022-12-25T00:27:04.654Z,100.00
2022-12-25T00:32:06.918Z,100.00
2022-12-25T00:37:09.292Z,100.00
2022-12-25T00:42:20.942Z,100.00
2022-12-25T00:47:23.320Z,100.00
2022-12-25T00:52:25.511Z,100.00
2022-12-25T00:57:27.648Z,100.00
2022-12-25T01:02:29.808Z,100.00
2022-12-25T01:07:31.976Z,100.00
2022-12-25T01:12:39.251Z,100.00
2022-12-25T01:17:43.023Z,100.00
2022-12-25T01:22:46.032Z,100.00
2022-12-25T01:27:48.029Z,100.00
2022-12-25T01:32:50.029Z,100.00
2022-12-25T01:37:52.726Z,100.00
2022-12-25T01:42:54.801Z,100.00
2022-12-25T01:47:57.284Z,100.00
2022-12-25T01:52:59.381Z,100.00
2022-12-25T01:58:01.514Z,100.00
2022-12-25T02:03:04.938Z,100.00
2022-12-25T02:08:14.974Z,100.00
2022-12-25T02:13:20.421Z,100.00
2022-12-25T02:18:39.888Z,100.00
2022-12-25T02:24:03.475Z,100.00
2022-12-25T02:29:23.507Z,100.00
2022-12-25T02:34:47.583Z,100.00
2022-12-25T02:40:12.924Z,100.00
2022-12-25T02:45:44.920Z,100.00
2022-12-25T02:51:07.135Z,100.00
2022-12-25T02:56:28.991Z,100.00
2022-12-25T03:01:53.801Z,100.00
2022-12-25T03:07:04.567Z,100.00
2022-12-25T03:12:42.889Z,100.00
2022-12-25T03:17:45.358Z,100.00
2022-12-25T03:23:07.067Z,100.00
2022-12-25T03:28:09.422Z,100.00
2022-12-25T03:33:46.095Z,100.00
2022-12-25T03:39:21.276Z,100.00
2022-12-25T03:45:05.838Z,100.00
2022-12-25T03:50:37.452Z,100.00
2022-12-25T03:56:00.202Z,100.00
2022-12-25T04:01:21.017Z,100.00
2022-12-25T04:06:41.721Z,100.00
2022-12-25T04:12:03.234Z,100.00
2022-12-25T04:17:23.692Z,100.00
2022-12-25T04:22:44.349Z,100.00
2022-12-25T04:28:04.974Z,100.00
2022-12-25T04:33:25.432Z,100.00
2022-12-25T04:38:27.382Z,100.00
2022-12-25T04:43:29.989Z,100.00
2022-12-25T04:48:35.935Z,100.00
2022-12-25T04:53:37.942Z,100.00
2022-12-25T04:58:41.152Z,100.00
2022-12-25T05:03:43.524Z,100.00
2022-12-25T05:08:45.561Z,100.00
2022-12-25T05:13:47.541Z,100.00
2022-12-25T05:18:51.453Z,100.00
2022-12-25T05:23:54.110Z,100.00
2022-12-25T05:28:56.724Z,100.00
2022-12-25T05:33:59.175Z,100.00
2022-12-25T05:39:01.127Z,100.00
2022-12-25T05:44:03.333Z,100.00
2022-12-25T05:49:05.827Z,100.00
2022-12-25T05:54:07.954Z,100.00
2022-12-25T05:59:10.336Z,100.00
2022-12-25T06:04:13.213Z,100.00
2022-12-25T06:09:15.406Z,100.00
2022-12-25T06:14:17.421Z,100.00
2022-12-25T06:19:20.875Z,100.00
2022-12-25T06:24:24.057Z,100.00
2022-12-25T06:29:26.220Z,100.00
2022-12-25T06:34:28.301Z,100.00
2022-12-25T06:39:30.451Z,100.00
2022-12-25T06:44:33.761Z,100.00
2022-12-25T06:49:35.987Z,100.00
2022-12-25T06:54:38.025Z,100.00
2022-12-25T06:59:40.346Z,100.00
2022-12-25T07:04:43.293Z,100.00
2022-12-25T07:09:45.311Z,100.00
2022-12-25T07:14:50.036Z,100.00
2022-12-25T07:19:52.556Z,100.00
2022-12-25T07:24:54.557Z,100.00
2022-12-25T07:29:56.526Z,100.00
2022-12-25T07:34:59.014Z,100.00
2022-12-25T07:40:01.186Z,100.00
2022-12-25T07:45:04.251Z,100.00
2022-12-25T07:50:07.435Z,100.00
2022-12-25T07:55:10.629Z,100.00
2022-12-25T08:00:13.697Z,100.00
2022-12-25T08:05:15.883Z,100.00
2022-12-25T08:10:17.985Z,100.00
2022-12-25T08:15:19.969Z,100.00
2022-12-25T08:20:22.354Z,100.00
2022-12-25T08:25:24.302Z,100.00
2022-12-25T08:30:26.538Z,100.00
2022-12-25T08:35:28.650Z,100.00
2022-12-25T08:40:30.663Z,100.00
2022-12-25T08:45:35.450Z,100.00
2022-12-25T08:50:37.533Z,100.00
2022-12-25T08:55:40.311Z,100.00
2022-12-25T09:00:42.729Z,100.00
2022-12-25T09:05:44.716Z,100.00
2022-12-25T09:10:46.662Z,100.00
2022-12-25T09:15:48.725Z,100.00
2022-12-25T09:21:03.081Z,100.00
2022-12-25T09:26:08.571Z,100.00
2022-12-25T09:31:11.608Z,100.00
2022-12-25T09:36:13.855Z,100.00
2022-12-25T09:41:50.431Z,100.00
2022-12-25T09:47:04.547Z,100.00
2022-12-25T09:52:25.866Z,100.00
2022-12-25T09:57:28.033Z,100.00
2022-12-25T10:02:52.079Z,100.00
2022-12-25T10:08:04.287Z,100.00
2022-12-25T10:13:06.210Z,100.00
2022-12-25T10:18:17.215Z,100.00
2022-12-25T10:23:39.052Z,100.00
2022-12-25T10:28:46.846Z,100.00
2022-12-25T10:33:51.181Z,100.00
2022-12-25T10:38:55.012Z,100.00
2022-12-25T10:43:57.958Z,100.00
2022-12-25T10:49:02.927Z,100.00
2022-12-25T10:54:27.931Z,100.00
2022-12-25T10:59:41.815Z,100.00
2022-12-25T11:04:44.396Z,100.00
2022-12-25T11:10:02.731Z,100.00
2022-12-25T11:15:39.261Z,100.00
2022-12-25T11:21:00.628Z,100.00
2022-12-25T11:26:08.400Z,100.00
2022-12-25T11:31:21.240Z,100.00
2022-12-25T11:36:45.469Z,100.00
2022-12-25T11:41:50.488Z,100.00
2022-12-25T11:46:56.238Z,97.91
2022-12-25T11:51:58.961Z,90.88
2022-12-25T11:57:04.685Z,82.41
2022-12-25T12:02:19.239Z,78.32
2022-12-25T12:07:30.570Z,73.22
2022-12-25T12:12:38.847Z,64.58
2022-12-25T12:17:44.152Z,75.58
2022-12-25T12:22:51.354Z,82.26
2022-12-25T12:28:04.892Z,73.02
2022-12-25T12:33:20.133Z,72.31
2022-12-25T12:38:24.710Z,79.88
2022-12-25T12:43:39.686Z,79.83
2022-12-25T12:48:46.880Z,91.26
2022-12-25T12:53:48.877Z,96.84
2022-12-25T12:58:51.331Z,100.00
2022-12-25T13:04:40.377Z,100.00
2022-12-25T13:10:18.214Z,100.00
2022-12-25T13:15:24.525Z,100.00
2022-12-25T13:20:39.049Z,100.00
2022-12-25T13:25:41.725Z,100.00
2022-12-25T13:30:44.198Z,100.00
2022-12-25T13:35:47.286Z,100.00
2022-12-25T13:41:14.132Z,100.00
2022-12-25T13:46:25.222Z,100.00
2022-12-25T13:51:28.571Z,100.00
2022-12-25T13:56:32.019Z,100.00
2022-12-25T14:01:34.460Z,100.00
2022-12-25T14:06:37.088Z,100.00
2022-12-25T14:11:41.451Z,100.00
2022-12-25T14:16:48.812Z,100.00
2022-12-25T14:22:05.324Z,100.00
2022-12-25T14:27:19.515Z,100.00
2022-12-25T14:32:24.944Z,100.00
2022-12-25T14:37:31.443Z,100.00
2022-12-25T14:42:35.318Z,100.00
2022-12-25T14:47:55.636Z,100.00
2022-12-25T14:52:59.723Z,100.00
2022-12-25T14:58:07.806Z,100.00
2022-12-25T15:03:32.211Z,100.00
2022-12-25T15:08:35.606Z,100.00
2022-12-25T15:13:37.731Z,100.00
2022-12-25T15:18:44.566Z,100.00
2022-12-25T15:23:47.089Z,100.00
2022-12-25T15:28:49.272Z,100.00
2022-12-25T15:33:53.167Z,100.00
2022-12-25T15:38:55.873Z,100.00
2022-12-25T15:43:58.016Z,100.00
2022-12-25T15:49:00.922Z,100.00
2022-12-25T15:54:02.965Z,100.00
2022-12-25T15:59:05.033Z,99.16
2022-12-25T16:04:07.091Z,98.81
2022-12-25T16:09:12.290Z,100.00
2022-12-25T16:14:15.105Z,96.45
2022-12-25T16:19:17.082Z,95.68
2022-12-25T16:24:19.139Z,94.70
2022-12-25T16:29:21.205Z,93.29
2022-12-25T16:34:23.225Z,92.23
2022-12-25T16:39:25.238Z,91.02
2022-12-25T16:44:27.310Z,89.34
2022-12-25T16:49:29.401Z,90.69
2022-12-25T16:54:31.490Z,90.89
2022-12-25T16:59:34.731Z,93.32
2022-12-25T17:04:36.770Z,90.39
2022-12-25T17:09:44.047Z,89.87
2022-12-25T17:14:46.621Z,88.83
2022-12-25T17:19:48.622Z,88.04
2022-12-25T17:24:50.720Z,88.99
2022-12-25T17:29:52.863Z,88.79
2022-12-25T17:34:54.920Z,89.89
2022-12-25T17:39:56.974Z,90.49
2022-12-25T17:44:58.994Z,90.58
2022-12-25T17:50:00.993Z,91.07
2022-12-25T17:55:03.215Z,92.87
2022-12-25T18:00:06.674Z,92.41
2022-12-25T18:05:09.270Z,92.65
2022-12-25T18:10:12.143Z,92.44
2022-12-25T18:15:14.394Z,93.19
2022-12-25T18:20:16.567Z,93.17
2022-12-25T18:25:18.622Z,93.41
2022-12-25T18:30:21.039Z,93.79
2022-12-25T18:35:23.475Z,94.90
2022-12-25T18:40:25.414Z,95.62
2022-12-25T18:45:27.953Z,94.81
2022-12-25T18:50:31.027Z,94.80
2022-12-25T18:55:33.246Z,95.16
2022-12-25T19:00:35.329Z,94.64
2022-12-25T19:05:40.586Z,94.89
2022-12-25T19:10:45.482Z,95.17
2022-12-25T19:15:47.553Z,95.37
2022-12-25T19:20:49.675Z,95.89
2022-12-25T19:25:51.704Z,96.49
2022-12-25T19:30:54.371Z,96.87
2022-12-25T19:36:10.574Z,96.86
2022-12-25T19:41:18.166Z,97.21
2022-12-25T19:46:24.463Z,97.20
2022-12-25T19:51:29.455Z,97.09
2022-12-25T19:56:32.948Z,96.81
2022-12-25T20:01:35.554Z,97.04
2022-12-25T20:06:39.962Z,96.59
2022-12-25T20:11:43.566Z,96.27
2022-12-25T20:16:46.426Z,96.04
2022-12-25T20:21:48.920Z,95.21
2022-12-25T20:26:58.562Z,95.32
2022-12-25T20:32:01.465Z,95.14
2022-12-25T20:37:04.529Z,95.06
2022-12-25T20:42:08.018Z,94.93
2022-12-25T20:47:10.564Z,94.63
2022-12-25T20:52:13.235Z,94.06
2022-12-25T20:57:15.795Z,93.84
2022-12-25T21:02:33.973Z,93.33
2022-12-25T21:07:38.574Z,93.45
2022-12-25T21:12:41.331Z,93.87
2022-12-25T21:17:43.915Z,93.24
2022-12-25T21:22:46.556Z,94.03
2022-12-25T21:27:48.961Z,93.31
2022-12-25T21:33:10.237Z,94.05
2022-12-25T21:38:13.351Z,94.18
2022-12-25T21:43:16.001Z,94.71
2022-12-25T21:48:18.454Z,95.23
2022-12-25T21:53:21.312Z,94.60
2022-12-25T21:58:24.164Z,93.61
2022-12-25T22:03:26.608Z,93.19
2022-12-25T22:08:32.778Z,93.35
2022-12-25T22:13:53.571Z,92.95
2022-12-25T22:19:14.507Z,92.62
2022-12-25T22:24:16.978Z,92.79
2022-12-25T22:29:19.426Z,92.88
2022-12-25T22:34:21.796Z,92.48
2022-12-25T22:39:24.509Z,92.28
2022-12-25T22:44:31.620Z,92.75
2022-12-25T22:49:34.100Z,92.99
2022-12-25T22:54:36.902Z,93.30
2022-12-25T22:59:40.113Z,93.19
2022-12-25T23:04:42.881Z,93.26
2022-12-25T23:09:45.762Z,93.32
2022-12-25T23:14:48.131Z,93.31
2022-12-25T23:20:09.452Z,93.12
2022-12-25T23:25:34.095Z,92.87
2022-12-25T23:30:36.582Z,94.05
2022-12-25T23:35:38.986Z,93.78
2022-12-25T23:40:41.651Z,94.51
2022-12-25T23:45:44.309Z,93.93
2022-12-25T23:50:46.749Z,94.02
2022-12-25T23:55:55.412Z,94.12
